AXM194 WMKK-WMKI
Flight info
| Callsign | AXM194 |
|---|---|
| Flight time | 0h 35m |
| Altitude | 14000 |
| Route | ATIMU2F ATIMU DCT TEPUS TEPUS2E |
| Aircraft | A320/M-SDE3FGHIRWY/LB1 |
Departure
| Time | 2026-04-22 13:50 |
|---|---|
| Airport | Kuala Lumpur International Airport (WMKK) |
Arrival
| Time | 2026-04-22 14:26 |
|---|---|
| Airport | Sultan Azlan Shah Airport (WMKI) |
| Time | Latitude | Longitude | Altitude | Speed | Heading |
|---|---|---|---|---|---|
| 2026-04-22 13:13 | 2.74087 | 101.68336 | 42 ft | 0 kts | 146° |
| 2026-04-22 13:33 | 2.74090 | 101.68334 | 42 ft | 2 kts | 146° |
| 2026-04-22 13:33 | 2.74099 | 101.68327 | 40 ft | 2 kts | 146° |
| 2026-04-22 13:33 | 2.74114 | 101.68318 | 39 ft | 3 kts | 156° |
| 2026-04-22 13:34 | 2.74131 | 101.68314 | 41 ft | 3 kts | 194° |
| 2026-04-22 13:34 | 2.74139 | 101.68316 | 40 ft | 0 kts | 213° |
| 2026-04-22 13:40 | 2.74138 | 101.68315 | 42 ft | 2 kts | 213° |
| 2026-04-22 13:40 | 2.74129 | 101.68308 | 41 ft | 1 kts | 219° |
| 2026-04-22 13:41 | 2.74118 | 101.68295 | 40 ft | 7 kts | 233° |
| 2026-04-22 13:41 | 2.74080 | 101.68238 | 42 ft | 12 kts | 236° |
| 2026-04-22 13:41 | 2.74022 | 101.68152 | 42 ft | 18 kts | 236° |
| 2026-04-22 13:41 | 2.73940 | 101.68033 | 40 ft | 23 kts | 220° |
| 2026-04-22 13:42 | 2.73873 | 101.68057 | 40 ft | 12 kts | 148° |
| 2026-04-22 13:42 | 2.73781 | 101.68110 | 40 ft | 18 kts | 146° |
| 2026-04-22 13:42 | 2.73663 | 101.68193 | 40 ft | 23 kts | 146° |
| 2026-04-22 13:42 | 2.73513 | 101.68294 | 40 ft | 28 kts | 148° |
| 2026-04-22 13:43 | 2.73339 | 101.68413 | 40 ft | 32 kts | 147° |
| 2026-04-22 13:43 | 2.73140 | 101.68543 | 38 ft | 36 kts | 147° |
| 2026-04-22 13:43 | 2.72924 | 101.68690 | 40 ft | 39 kts | 147° |
| 2026-04-22 13:43 | 2.72710 | 101.68834 | 40 ft | 41 kts | 146° |
| 2026-04-22 13:44 | 2.72481 | 101.68989 | 40 ft | 40 kts | 147° |
| 2026-04-22 13:44 | 2.72257 | 101.69141 | 40 ft | 39 kts | 146° |
| 2026-04-22 13:44 | 2.72036 | 101.69289 | 40 ft | 38 kts | 144° |
| 2026-04-22 13:44 | 2.71843 | 101.69400 | 40 ft | 15 kts | 200° |
| 2026-04-22 13:45 | 2.71812 | 101.69374 | 39 ft | 0 kts | 232° |
| 2026-04-22 13:47 | 2.71805 | 101.69365 | 40 ft | 5 kts | 233° |
| 2026-04-22 13:47 | 2.71770 | 101.69318 | 39 ft | 12 kts | 233° |
| 2026-04-22 13:48 | 2.71752 | 101.69281 | 39 ft | 0 kts | 259° |
| 2026-04-22 13:49 | 2.71751 | 101.69275 | 39 ft | 3 kts | 262° |
| 2026-04-22 13:49 | 2.71756 | 101.69235 | 40 ft | 9 kts | 292° |
| 2026-04-22 13:49 | 2.71797 | 101.69163 | 38 ft | 15 kts | 300° |
| 2026-04-22 13:49 | 2.71873 | 101.69063 | 39 ft | 23 kts | 313° |
| 2026-04-22 13:50 | 2.72208 | 101.68843 | 37 ft | 94 kts | 325° |
| 2026-04-22 13:50 | 2.72937 | 101.68347 | 123 ft | 154 kts | 326° |
| 2026-04-22 13:50 | 2.73840 | 101.67735 | 899 ft | 165 kts | 326° |
| 2026-04-22 13:50 | 2.74858 | 101.67019 | 1405 ft | 185 kts | 326° |
| 2026-04-22 13:51 | 2.75936 | 101.66230 | 1867 ft | 202 kts | 312° |
| 2026-04-22 13:51 | 2.76505 | 101.64957 | 2438 ft | 212 kts | 277° |
| 2026-04-22 13:51 | 2.76587 | 101.63453 | 2973 ft | 228 kts | 269° |
| 2026-04-22 13:51 | 2.76527 | 101.61811 | 3535 ft | 245 kts | 267° |
| 2026-04-22 13:52 | 2.76444 | 101.60033 | 3935 ft | 272 kts | 268° |
| 2026-04-22 13:52 | 2.76380 | 101.58132 | 4014 ft | 276 kts | 269° |
| 2026-04-22 13:52 | 2.76433 | 101.56214 | 4028 ft | 276 kts | 279° |
| 2026-04-22 13:52 | 2.76941 | 101.54368 | 4082 ft | 275 kts | 294° |
| 2026-04-22 13:53 | 2.77710 | 101.52614 | 4672 ft | 276 kts | 294° |
| 2026-04-22 13:53 | 2.78482 | 101.50844 | 5628 ft | 279 kts | 294° |
| 2026-04-22 13:53 | 2.79259 | 101.49056 | 6559 ft | 281 kts | 294° |
| 2026-04-22 13:53 | 2.80040 | 101.47252 | 7430 ft | 284 kts | 294° |
| 2026-04-22 13:54 | 2.80825 | 101.45434 | 8322 ft | 287 kts | 294° |
| 2026-04-22 13:54 | 2.81614 | 101.43605 | 9179 ft | 291 kts | 294° |
| 2026-04-22 13:54 | 2.82413 | 101.41754 | 10012 ft | 294 kts | 294° |
| 2026-04-22 13:54 | 2.83239 | 101.39843 | 10538 ft | 309 kts | 294° |
| 2026-04-22 13:55 | 2.83947 | 101.38247 | 10859 ft | 323 kts | 297° |
| 2026-04-22 13:55 | 2.84964 | 101.36496 | 11226 ft | 336 kts | 307° |
| 2026-04-22 13:55 | 2.86546 | 101.34786 | 11831 ft | 343 kts | 316° |
| 2026-04-22 13:55 | 2.88261 | 101.33127 | 12549 ft | 347 kts | 315° |
| 2026-04-22 13:56 | 2.89979 | 101.31436 | 13252 ft | 350 kts | 315° |
| 2026-04-22 13:56 | 2.91689 | 101.29733 | 13808 ft | 353 kts | 315° |
| 2026-04-22 13:56 | 2.93349 | 101.28072 | 14005 ft | 328 kts | 315° |
| 2026-04-22 13:56 | 2.94990 | 101.26425 | 14033 ft | 345 kts | 315° |
| 2026-04-22 13:57 | 2.96683 | 101.24724 | 14034 ft | 347 kts | 315° |
| 2026-04-22 13:57 | 2.98385 | 101.23015 | 14036 ft | 346 kts | 315° |
| 2026-04-22 13:57 | 3.00086 | 101.21310 | 14038 ft | 346 kts | 315° |
| 2026-04-22 13:57 | 3.01788 | 101.19606 | 13945 ft | 346 kts | 315° |
| 2026-04-22 13:58 | 3.03487 | 101.17903 | 13853 ft | 346 kts | 315° |
| 2026-04-22 13:58 | 3.05184 | 101.16201 | 13845 ft | 346 kts | 315° |
| 2026-04-22 13:58 | 3.06881 | 101.14501 | 13846 ft | 345 kts | 315° |
| 2026-04-22 13:58 | 3.08584 | 101.12800 | 13844 ft | 345 kts | 315° |
| 2026-04-22 13:59 | 3.10282 | 101.11102 | 13844 ft | 345 kts | 315° |
| 2026-04-22 13:59 | 3.11980 | 101.09401 | 13846 ft | 345 kts | 315° |
| 2026-04-22 13:59 | 3.13681 | 101.07700 | 13848 ft | 345 kts | 315° |
| 2026-04-22 13:59 | 3.15377 | 101.06002 | 13844 ft | 345 kts | 315° |
| 2026-04-22 14:00 | 3.17074 | 101.04303 | 13846 ft | 345 kts | 315° |
| 2026-04-22 14:00 | 3.18766 | 101.02604 | 13844 ft | 345 kts | 315° |
| 2026-04-22 14:00 | 3.20458 | 101.00909 | 13846 ft | 345 kts | 315° |
| 2026-04-22 14:00 | 3.22329 | 100.99425 | 13846 ft | 344 kts | 329° |
| 2026-04-22 14:01 | 3.24458 | 100.98452 | 13845 ft | 344 kts | 342° |
| 2026-04-22 14:01 | 3.26807 | 100.98002 | 13845 ft | 345 kts | 356° |
| 2026-04-22 14:01 | 3.29211 | 100.97984 | 13845 ft | 346 kts | 360° |
| 2026-04-22 14:01 | 3.31614 | 100.97995 | 13850 ft | 345 kts | 359° |
| 2026-04-22 14:02 | 3.34018 | 100.98006 | 13843 ft | 345 kts | 359° |
| 2026-04-22 14:02 | 3.35084 | 100.98011 | 13843 ft | 345 kts | 359° |
| 2026-04-22 14:02 | 3.37494 | 100.98019 | 13843 ft | 345 kts | 359° |
| 2026-04-22 14:02 | 3.39899 | 100.98027 | 13843 ft | 345 kts | 359° |
| 2026-04-22 14:03 | 3.42301 | 100.98036 | 13844 ft | 346 kts | 360° |
| 2026-04-22 14:03 | 3.44705 | 100.98045 | 13843 ft | 346 kts | 360° |
| 2026-04-22 14:03 | 3.47110 | 100.98056 | 13842 ft | 346 kts | 360° |
| 2026-04-22 14:03 | 3.49519 | 100.98067 | 13843 ft | 346 kts | 360° |
| 2026-04-22 14:04 | 3.51926 | 100.98078 | 13843 ft | 346 kts | 360° |
| 2026-04-22 14:04 | 3.54328 | 100.98007 | 13842 ft | 345 kts | 351° |
| 2026-04-22 14:04 | 3.56631 | 100.97363 | 13840 ft | 345 kts | 340° |
| 2026-04-22 14:04 | 3.58857 | 100.96583 | 13839 ft | 331 kts | 340° |
| 2026-04-22 14:05 | 3.60981 | 100.95830 | 13838 ft | 317 kts | 340° |
| 2026-04-22 14:05 | 3.63016 | 100.95106 | 13734 ft | 308 kts | 340° |
| 2026-04-22 14:05 | 3.66928 | 100.93715 | 13513 ft | 289 kts | 340° |
| 2026-04-22 14:06 | 3.68797 | 100.93048 | 13399 ft | 281 kts | 340° |
| 2026-04-22 14:06 | 3.70596 | 100.92408 | 13277 ft | 274 kts | 340° |
| 2026-04-22 14:06 | 3.72386 | 100.91771 | 13143 ft | 267 kts | 340° |
| 2026-04-22 14:06 | 3.74112 | 100.91158 | 13024 ft | 260 kts | 340° |
| 2026-04-22 14:07 | 3.75796 | 100.90560 | 12889 ft | 253 kts | 340° |
| 2026-04-22 14:07 | 3.77418 | 100.89984 | 12692 ft | 250 kts | 340° |
| 2026-04-22 14:07 | 3.79078 | 100.89395 | 12430 ft | 249 kts | 340° |
| 2026-04-22 14:07 | 3.80688 | 100.88824 | 12166 ft | 248 kts | 340° |
| 2026-04-22 14:08 | 3.82305 | 100.88249 | 11902 ft | 247 kts | 340° |
| 2026-04-22 14:08 | 3.83925 | 100.87675 | 11644 ft | 247 kts | 340° |
| 2026-04-22 14:08 | 3.85540 | 100.87102 | 11376 ft | 246 kts | 340° |
| 2026-04-22 14:08 | 3.87146 | 100.86532 | 11108 ft | 245 kts | 341° |
| 2026-04-22 14:09 | 3.88743 | 100.85966 | 10835 ft | 244 kts | 341° |
| 2026-04-22 14:09 | 3.90340 | 100.85399 | 10566 ft | 243 kts | 341° |
| 2026-04-22 14:09 | 3.91931 | 100.84834 | 10292 ft | 242 kts | 341° |
| 2026-04-22 14:09 | 3.93515 | 100.84273 | 10013 ft | 241 kts | 341° |
| 2026-04-22 14:10 | 3.95100 | 100.83709 | 9775 ft | 239 kts | 341° |
| 2026-04-22 14:10 | 3.96648 | 100.83158 | 9664 ft | 232 kts | 341° |
| 2026-04-22 14:10 | 3.98144 | 100.82627 | 9519 ft | 225 kts | 341° |
| 2026-04-22 14:10 | 3.99582 | 100.82116 | 9385 ft | 220 kts | 341° |
| 2026-04-22 14:11 | 4.01033 | 100.81599 | 9162 ft | 218 kts | 341° |
| 2026-04-22 14:11 | 4.02459 | 100.81094 | 8926 ft | 217 kts | 341° |
| 2026-04-22 14:11 | 4.03820 | 100.80612 | 8687 ft | 217 kts | 341° |
| 2026-04-22 14:11 | 4.05280 | 100.80093 | 8456 ft | 216 kts | 341° |
| 2026-04-22 14:12 | 4.06696 | 100.79590 | 8228 ft | 216 kts | 341° |
| 2026-04-22 14:12 | 4.08111 | 100.79087 | 8001 ft | 215 kts | 341° |
| 2026-04-22 14:12 | 4.09064 | 100.78748 | 7850 ft | 215 kts | 341° |
| 2026-04-22 14:12 | 4.10471 | 100.78248 | 7623 ft | 214 kts | 341° |
| 2026-04-22 14:13 | 4.11871 | 100.77751 | 7402 ft | 214 kts | 341° |
| 2026-04-22 14:13 | 4.13719 | 100.77100 | 7114 ft | 213 kts | 343° |
| 2026-04-22 14:13 | 4.15162 | 100.76808 | 6895 ft | 211 kts | 357° |
| 2026-04-22 14:13 | 4.16620 | 100.76836 | 6672 ft | 209 kts | 9° |
| 2026-04-22 14:14 | 4.18023 | 100.77176 | 6473 ft | 206 kts | 22° |
| 2026-04-22 14:14 | 4.19271 | 100.77775 | 6326 ft | 195 kts | 33° |
| 2026-04-22 14:14 | 4.20371 | 100.78591 | 5818 ft | 198 kts | 40° |
| 2026-04-22 14:14 | 4.21404 | 100.79425 | 5677 ft | 183 kts | 40° |
| 2026-04-22 14:15 | 4.22353 | 100.80186 | 5564 ft | 170 kts | 40° |
| 2026-04-22 14:15 | 4.23245 | 100.80902 | 5390 ft | 161 kts | 40° |
| 2026-04-22 14:15 | 4.24112 | 100.81598 | 5137 ft | 161 kts | 40° |
| 2026-04-22 14:15 | 4.24984 | 100.82299 | 4870 ft | 161 kts | 40° |
| 2026-04-22 14:16 | 4.25789 | 100.82946 | 4634 ft | 160 kts | 40° |
| 2026-04-22 14:16 | 4.26657 | 100.83644 | 4367 ft | 160 kts | 40° |
| 2026-04-22 14:16 | 4.27526 | 100.84343 | 4102 ft | 160 kts | 40° |
| 2026-04-22 14:16 | 4.28393 | 100.85040 | 3835 ft | 160 kts | 40° |
| 2026-04-22 14:17 | 4.29253 | 100.85732 | 3583 ft | 159 kts | 40° |
| 2026-04-22 14:17 | 4.30116 | 100.86425 | 3315 ft | 159 kts | 40° |
| 2026-04-22 14:17 | 4.30999 | 100.87084 | 3064 ft | 159 kts | 26° |
| 2026-04-22 14:17 | 4.31985 | 100.87578 | 2813 ft | 159 kts | 35° |
| 2026-04-22 14:18 | 4.32871 | 100.88237 | 2572 ft | 158 kts | 39° |
| 2026-04-22 14:18 | 4.33720 | 100.88938 | 2319 ft | 158 kts | 41° |
| 2026-04-22 14:18 | 4.34554 | 100.89652 | 2097 ft | 157 kts | 41° |
| 2026-04-22 14:18 | 4.35380 | 100.90370 | 2035 ft | 157 kts | 41° |
| 2026-04-22 14:19 | 4.36208 | 100.91095 | 2037 ft | 158 kts | 41° |
| 2026-04-22 14:19 | 4.37032 | 100.91818 | 2039 ft | 155 kts | 42° |
| 2026-04-22 14:19 | 4.37822 | 100.92512 | 2050 ft | 152 kts | 41° |
| 2026-04-22 14:19 | 4.38617 | 100.93211 | 2052 ft | 152 kts | 42° |
| 2026-04-22 14:20 | 4.40206 | 100.94608 | 2051 ft | 152 kts | 42° |
| 2026-04-22 14:20 | 4.40732 | 100.95071 | 2065 ft | 151 kts | 41° |
| 2026-04-22 14:20 | 4.41516 | 100.95760 | 2071 ft | 151 kts | 42° |
| 2026-04-22 14:21 | 4.43345 | 100.97369 | 2056 ft | 150 kts | 41° |
| 2026-04-22 14:21 | 4.44128 | 100.98058 | 1939 ft | 149 kts | 41° |
| 2026-04-22 14:22 | 4.45678 | 100.99421 | 1300 ft | 149 kts | 41° |
| 2026-04-22 14:22 | 4.46451 | 101.00102 | 1073 ft | 148 kts | 42° |
| 2026-04-22 14:22 | 4.47751 | 101.01244 | 1061 ft | 149 kts | 42° |
| 2026-04-22 14:23 | 4.48780 | 101.02150 | 1057 ft | 149 kts | 42° |
| 2026-04-22 14:23 | 4.49305 | 101.02612 | 1060 ft | 149 kts | 41° |
| 2026-04-22 14:23 | 4.50085 | 101.03299 | 1058 ft | 149 kts | 42° |
| 2026-04-22 14:23 | 4.50864 | 101.03983 | 1056 ft | 149 kts | 42° |
| 2026-04-22 14:24 | 4.51640 | 101.04667 | 1055 ft | 149 kts | 41° |
| 2026-04-22 14:24 | 4.52408 | 101.05342 | 1052 ft | 149 kts | 42° |
| 2026-04-22 14:24 | 4.53184 | 101.06024 | 910 ft | 148 kts | 43° |
| 2026-04-22 14:24 | 4.53954 | 101.06703 | 733 ft | 147 kts | 41° |
| 2026-04-22 14:25 | 4.54723 | 101.07377 | 517 ft | 147 kts | 41° |
| 2026-04-22 14:25 | 4.55489 | 101.08058 | 349 ft | 145 kts | 41° |
| 2026-04-22 14:25 | 4.56248 | 101.08723 | 160 ft | 145 kts | 41° |
| 2026-04-22 14:25 | 4.56934 | 101.09322 | 130 ft | 100 kts | 43° |
| 2026-04-22 14:26 | 4.57254 | 101.09607 | 134 ft | 39 kts | 48° |
| 2026-04-22 14:26 | 4.57309 | 101.09712 | 133 ft | 10 kts | 125° |
| 2026-04-22 14:26 | 4.57292 | 101.09732 | 133 ft | 0 kts | 135° |
| 2026-04-22 14:29 | 4.57267 | 101.09756 | 132 ft | 8 kts | 135° |
| 2026-04-22 14:29 | 4.57255 | 101.09768 | 132 ft | 0 kts | 135° |
| 2026-04-22 14:30 | 4.57246 | 101.09777 | 132 ft | 5 kts | 135° |
| 2026-04-22 14:30 | 4.57205 | 101.09816 | 132 ft | 11 kts | 141° |
| 2026-04-22 14:30 | 4.57166 | 101.09823 | 132 ft | 2 kts | 175° |
| 2026-04-22 14:31 | 4.57134 | 101.09840 | 132 ft | 6 kts | 148° |
| 2026-04-22 14:31 | 4.57118 | 101.09837 | 132 ft | 4 kts | 203° |
| 2026-04-22 14:31 | 4.57111 | 101.09832 | 132 ft | 0 kts | 213° |